sensor_id;sensor_type;location;lat;lon;timestamp;temperature;humidity
4697;DHT22;2362;50.780;0.292;2023-04-06T00:01:41;9.00;99.90
4697;DHT22;2362;50.780;0.292;2023-04-06T00:04:07;9.00;99.90
4697;DHT22;2362;50.780;0.292;2023-04-06T00:06:33;9.00;99.90
4697;DHT22;2362;50.780;0.292;2023-04-06T00:08:59;9.00;99.90
4697;DHT22;2362;50.780;0.292;2023-04-06T00:11:26;9.00;99.90
4697;DHT22;2362;50.780;0.292;2023-04-06T00:13:52;9.00;99.90
4697;DHT22;2362;50.780;0.292;2023-04-06T00:16:18;9.00;99.90
4697;DHT22;2362;50.780;0.292;2023-04-06T00:18:44;9.00;99.90
4697;DHT22;2362;50.780;0.292;2023-04-06T00:21:13;9.00;99.90
4697;DHT22;2362;50.780;0.292;2023-04-06T00:23:43;9.00;99.90
4697;DHT22;2362;50.780;0.292;2023-04-06T00:26:09;9.00;99.90
4697;DHT22;2362;50.780;0.292;2023-04-06T00:28:36;9.00;99.90
4697;DHT22;2362;50.780;0.292;2023-04-06T00:31:02;9.00;99.90
4697;DHT22;2362;50.780;0.292;2023-04-06T00:33:28;9.00;99.90
4697;DHT22;2362;50.780;0.292;2023-04-06T00:35:53;9.00;99.90
4697;DHT22;2362;50.780;0.292;2023-04-06T00:38:19;9.00;99.90
4697;DHT22;2362;50.780;0.292;2023-04-06T00:40:45;9.00;99.90
4697;DHT22;2362;50.780;0.292;2023-04-06T00:43:11;9.00;99.90
4697;DHT22;2362;50.780;0.292;2023-04-06T00:45:41;9.00;99.90
4697;DHT22;2362;50.780;0.292;2023-04-06T00:48:07;9.00;99.90
4697;DHT22;2362;50.780;0.292;2023-04-06T00:50:58;9.00;99.90
4697;DHT22;2362;50.780;0.292;2023-04-06T00:53:49;9.00;99.90
4697;DHT22;2362;50.780;0.292;2023-04-06T00:56:17;9.00;99.90
4697;DHT22;2362;50.780;0.292;2023-04-06T00:58:42;8.90;99.90
4697;DHT22;2362;50.780;0.292;2023-04-06T01:01:08;9.00;99.90
4697;DHT22;2362;50.780;0.292;2023-04-06T01:03:34;9.00;99.90
4697;DHT22;2362;50.780;0.292;2023-04-06T01:06:00;9.00;99.90
4697;DHT22;2362;50.780;0.292;2023-04-06T01:08:26;8.90;99.90
4697;DHT22;2362;50.780;0.292;2023-04-06T01:10:52;8.90;99.90
4697;DHT22;2362;50.780;0.292;2023-04-06T01:13:18;8.90;99.90
4697;DHT22;2362;50.780;0.292;2023-04-06T01:15:43;8.90;99.90
4697;DHT22;2362;50.780;0.292;2023-04-06T01:18:12;8.90;99.90
4697;DHT22;2362;50.780;0.292;2023-04-06T01:20:37;8.90;99.90
4697;DHT22;2362;50.780;0.292;2023-04-06T01:23:04;8.90;99.90
4697;DHT22;2362;50.780;0.292;2023-04-06T01:25:29;8.90;99.90
4697;DHT22;2362;50.780;0.292;2023-04-06T01:27:55;8.90;99.90
4697;DHT22;2362;50.780;0.292;2023-04-06T01:30:21;8.90;99.90
4697;DHT22;2362;50.780;0.292;2023-04-06T01:32:46;8.90;99.90
4697;DHT22;2362;50.780;0.292;2023-04-06T01:35:12;8.90;99.90
4697;DHT22;2362;50.780;0.292;2023-04-06T01:37:38;8.90;99.90
4697;DHT22;2362;50.780;0.292;2023-04-06T01:40:04;8.90;99.90
4697;DHT22;2362;50.780;0.292;2023-04-06T01:42:30;8.90;99.90
4697;DHT22;2362;50.780;0.292;2023-04-06T01:44:55;8.90;99.90
4697;DHT22;2362;50.780;0.292;2023-04-06T01:47:21;8.90;99.90
4697;DHT22;2362;50.780;0.292;2023-04-06T01:49:47;8.90;99.90
4697;DHT22;2362;50.780;0.292;2023-04-06T01:52:12;8.90;99.90
4697;DHT22;2362;50.780;0.292;2023-04-06T01:54:39;8.90;99.90
4697;DHT22;2362;50.780;0.292;2023-04-06T01:57:05;9.00;99.90
4697;DHT22;2362;50.780;0.292;2023-04-06T01:59:55;8.90;99.90
4697;DHT22;2362;50.780;0.292;2023-04-06T02:02:21;8.90;99.90
4697;DHT22;2362;50.780;0.292;2023-04-06T02:04:47;8.90;99.90
4697;DHT22;2362;50.780;0.292;2023-04-06T02:07:12;8.90;99.90
4697;DHT22;2362;50.780;0.292;2023-04-06T02:09:38;8.90;99.90
4697;DHT22;2362;50.780;0.292;2023-04-06T02:12:28;8.90;99.90
4697;DHT22;2362;50.780;0.292;2023-04-06T02:14:54;9.00;99.90
4697;DHT22;2362;50.780;0.292;2023-04-06T02:17:20;8.90;99.90
4697;DHT22;2362;50.780;0.292;2023-04-06T02:19:46;8.90;99.90
4697;DHT22;2362;50.780;0.292;2023-04-06T02:22:12;8.90;99.90
4697;DHT22;2362;50.780;0.292;2023-04-06T02:24:37;8.80;99.90
4697;DHT22;2362;50.780;0.292;2023-04-06T02:27:03;8.90;99.90
4697;DHT22;2362;50.780;0.292;2023-04-06T02:29:29;8.90;99.90
4697;DHT22;2362;50.780;0.292;2023-04-06T02:31:54;8.90;99.90
4697;DHT22;2362;50.780;0.292;2023-04-06T02:34:45;8.90;99.90
4697;DHT22;2362;50.780;0.292;2023-04-06T02:37:36;8.90;99.90
4697;DHT22;2362;50.780;0.292;2023-04-06T02:40:04;8.90;99.90
4697;DHT22;2362;50.780;0.292;2023-04-06T02:42:31;8.90;99.90
4697;DHT22;2362;50.780;0.292;2023-04-06T02:44:57;8.90;99.90
4697;DHT22;2362;50.780;0.292;2023-04-06T02:47:23;8.90;99.90
4697;DHT22;2362;50.780;0.292;2023-04-06T02:49:48;8.90;99.90
4697;DHT22;2362;50.780;0.292;2023-04-06T02:52:14;8.90;99.90
4697;DHT22;2362;50.780;0.292;2023-04-06T02:54:40;8.80;99.90
4697;DHT22;2362;50.780;0.292;2023-04-06T02:57:10;8.90;99.90
4697;DHT22;2362;50.780;0.292;2023-04-06T02:59:35;8.90;99.90
4697;DHT22;2362;50.780;0.292;2023-04-06T03:02:01;8.90;99.90
4697;DHT22;2362;50.780;0.292;2023-04-06T03:04:27;8.90;99.90
4697;DHT22;2362;50.780;0.292;2023-04-06T03:06:53;8.90;99.90
4697;DHT22;2362;50.780;0.292;2023-04-06T03:09:19;8.90;99.90
4697;DHT22;2362;50.780;0.292;2023-04-06T03:11:45;8.90;99.90
4697;DHT22;2362;50.780;0.292;2023-04-06T03:14:11;8.90;99.90
4697;DHT22;2362;50.780;0.292;2023-04-06T03:16:36;8.80;99.90
4697;DHT22;2362;50.780;0.292;2023-04-06T03:19:02;8.80;99.90
4697;DHT22;2362;50.780;0.292;2023-04-06T03:21:27;8.80;99.90
4697;DHT22;2362;50.780;0.292;2023-04-06T03:23:53;8.80;99.90
4697;DHT22;2362;50.780;0.292;2023-04-06T03:26:19;8.90;99.90
4697;DHT22;2362;50.780;0.292;2023-04-06T03:28:46;8.90;99.90
4697;DHT22;2362;50.780;0.292;2023-04-06T03:31:11;8.90;99.90
4697;DHT22;2362;50.780;0.292;2023-04-06T03:33:37;8.80;99.90
4697;DHT22;2362;50.780;0.292;2023-04-06T03:36:03;8.90;99.90
4697;DHT22;2362;50.780;0.292;2023-04-06T03:38:29;8.80;99.90
4697;DHT22;2362;50.780;0.292;2023-04-06T03:40:55;8.90;99.90
4697;DHT22;2362;50.780;0.292;2023-04-06T03:43:20;8.90;99.90
4697;DHT22;2362;50.780;0.292;2023-04-06T03:45:46;8.90;99.90
4697;DHT22;2362;50.780;0.292;2023-04-06T03:48:12;8.90;99.90
4697;DHT22;2362;50.780;0.292;2023-04-06T03:50:37;8.90;99.90
4697;DHT22;2362;50.780;0.292;2023-04-06T03:53:03;8.80;99.90
4697;DHT22;2362;50.780;0.292;2023-04-06T03:55:29;8.80;99.90
4697;DHT22;2362;50.780;0.292;2023-04-06T03:57:54;8.80;99.90
4697;DHT22;2362;50.780;0.292;2023-04-06T04:00:20;8.80;99.90
4697;DHT22;2362;50.780;0.292;2023-04-06T04:02:46;8.80;99.90
4697;DHT22;2362;50.780;0.292;2023-04-06T04:05:11;8.80;99.90
4697;DHT22;2362;50.780;0.292;2023-04-06T04:07:37;8.80;99.90
4697;DHT22;2362;50.780;0.292;2023-04-06T04:10:03;8.90;99.90
4697;DHT22;2362;50.780;0.292;2023-04-06T04:12:29;8.80;99.90
4697;DHT22;2362;50.780;0.292;2023-04-06T04:14:55;8.80;99.90
4697;DHT22;2362;50.780;0.292;2023-04-06T04:17:21;8.80;99.90
4697;DHT22;2362;50.780;0.292;2023-04-06T04:19:47;8.80;99.90
4697;DHT22;2362;50.780;0.292;2023-04-06T04:22:13;8.80;99.90
4697;DHT22;2362;50.780;0.292;2023-04-06T04:24:38;8.90;99.90
4697;DHT22;2362;50.780;0.292;2023-04-06T04:27:04;8.80;99.90
4697;DHT22;2362;50.780;0.292;2023-04-06T04:29:30;8.80;99.90
4697;DHT22;2362;50.780;0.292;2023-04-06T04:32:21;8.80;99.90
4697;DHT22;2362;50.780;0.292;2023-04-06T04:34:47;8.80;99.90
4697;DHT22;2362;50.780;0.292;2023-04-06T04:37:12;8.80;99.90
4697;DHT22;2362;50.780;0.292;2023-04-06T04:39:38;8.80;99.90
4697;DHT22;2362;50.780;0.292;2023-04-06T04:42:03;8.90;99.90
4697;DHT22;2362;50.780;0.292;2023-04-06T04:44:29;8.90;99.90
4697;DHT22;2362;50.780;0.292;2023-04-06T04:46:55;8.90;99.90
4697;DHT22;2362;50.780;0.292;2023-04-06T04:49:20;8.90;99.90
4697;DHT22;2362;50.780;0.292;2023-04-06T04:51:46;8.90;99.90
4697;DHT22;2362;50.780;0.292;2023-04-06T04:54:11;8.90;99.90
4697;DHT22;2362;50.780;0.292;2023-04-06T04:56:37;8.90;99.90
4697;DHT22;2362;50.780;0.292;2023-04-06T04:59:03;8.90;99.90
4697;DHT22;2362;50.780;0.292;2023-04-06T05:01:28;8.90;99.90
4697;DHT22;2362;50.780;0.292;2023-04-06T05:03:54;8.90;99.90
4697;DHT22;2362;50.780;0.292;2023-04-06T05:06:45;8.90;99.90
4697;DHT22;2362;50.780;0.292;2023-04-06T05:09:10;8.90;99.90
4697;DHT22;2362;50.780;0.292;2023-04-06T05:11:36;9.00;99.90
4697;DHT22;2362;50.780;0.292;2023-04-06T05:14:02;9.00;99.90
4697;DHT22;2362;50.780;0.292;2023-04-06T05:16:27;9.00;99.90
4697;DHT22;2362;50.780;0.292;2023-04-06T05:18:53;9.00;99.90
4697;DHT22;2362;50.780;0.292;2023-04-06T05:21:19;9.00;99.90
4697;DHT22;2362;50.780;0.292;2023-04-06T05:23:44;9.00;99.90
4697;DHT22;2362;50.780;0.292;2023-04-06T05:26:10;9.00;99.90
4697;DHT22;2362;50.780;0.292;2023-04-06T05:28:36;9.10;99.90
4697;DHT22;2362;50.780;0.292;2023-04-06T05:31:02;9.10;99.90
4697;DHT22;2362;50.780;0.292;2023-04-06T05:33:27;9.10;99.90
4697;DHT22;2362;50.780;0.292;2023-04-06T05:35:53;9.10;99.90
4697;DHT22;2362;50.780;0.292;2023-04-06T05:38:19;9.10;99.90
4697;DHT22;2362;50.780;0.292;2023-04-06T05:40:47;9.10;99.90
4697;DHT22;2362;50.780;0.292;2023-04-06T05:43:12;9.10;99.90
4697;DHT22;2362;50.780;0.292;2023-04-06T05:45:38;9.10;99.90
4697;DHT22;2362;50.780;0.292;2023-04-06T05:48:04;9.10;99.90
4697;DHT22;2362;50.780;0.292;2023-04-06T05:50:30;9.20;99.90
4697;DHT22;2362;50.780;0.292;2023-04-06T05:52:55;9.20;99.90
4697;DHT22;2362;50.780;0.292;2023-04-06T05:55:21;9.20;99.90
4697;DHT22;2362;50.780;0.292;2023-04-06T05:57:46;9.20;99.90
4697;DHT22;2362;50.780;0.292;2023-04-06T06:00:13;9.20;99.90
4697;DHT22;2362;50.780;0.292;2023-04-06T06:02:39;9.30;99.90
4697;DHT22;2362;50.780;0.292;2023-04-06T06:05:05;9.30;99.90
4697;DHT22;2362;50.780;0.292;2023-04-06T06:07:31;9.30;99.90
4697;DHT22;2362;50.780;0.292;2023-04-06T06:09:57;9.40;99.90
4697;DHT22;2362;50.780;0.292;2023-04-06T06:12:23;9.40;99.90
4697;DHT22;2362;50.780;0.292;2023-04-06T06:14:49;9.40;99.90
4697;DHT22;2362;50.780;0.292;2023-04-06T06:17:15;9.40;99.90
4697;DHT22;2362;50.780;0.292;2023-04-06T06:19:40;9.40;99.90
4697;DHT22;2362;50.780;0.292;2023-04-06T06:22:06;9.50;99.90
4697;DHT22;2362;50.780;0.292;2023-04-06T06:24:32;9.50;99.90
4697;DHT22;2362;50.780;0.292;2023-04-06T06:26:57;9.50;99.90
4697;DHT22;2362;50.780;0.292;2023-04-06T06:29:23;9.50;99.90
4697;DHT22;2362;50.780;0.292;2023-04-06T06:31:49;9.50;99.90
4697;DHT22;2362;50.780;0.292;2023-04-06T06:34:15;9.60;99.90
4697;DHT22;2362;50.780;0.292;2023-04-06T06:36:41;9.60;99.90
4697;DHT22;2362;50.780;0.292;2023-04-06T06:39:06;9.60;99.90
4697;DHT22;2362;50.780;0.292;2023-04-06T06:41:32;9.60;99.90
4697;DHT22;2362;50.780;0.292;2023-04-06T06:44:23;9.60;99.90
4697;DHT22;2362;50.780;0.292;2023-04-06T06:46:51;9.70;99.90
4697;DHT22;2362;50.780;0.292;2023-04-06T06:49:16;9.70;99.90
4697;DHT22;2362;50.780;0.292;2023-04-06T06:51:42;9.70;99.90
4697;DHT22;2362;50.780;0.292;2023-04-06T06:54:08;9.80;99.90
4697;DHT22;2362;50.780;0.292;2023-04-06T06:56:33;9.80;99.90
4697;DHT22;2362;50.780;0.292;2023-04-06T06:59:01;9.80;99.90
4697;DHT22;2362;50.780;0.292;2023-04-06T07:01:26;9.80;99.90
4697;DHT22;2362;50.780;0.292;2023-04-06T07:03:52;9.80;99.90
4697;DHT22;2362;50.780;0.292;2023-04-06T07:06:43;9.80;99.90
4697;DHT22;2362;50.780;0.292;2023-04-06T07:09:09;10.00;99.90
4697;DHT22;2362;50.780;0.292;2023-04-06T07:11:34;10.00;99.90
4697;DHT22;2362;50.780;0.292;2023-04-06T07:14:01;10.00;99.90
4697;DHT22;2362;50.780;0.292;2023-04-06T07:16:26;10.00;99.90
4697;DHT22;2362;50.780;0.292;2023-04-06T07:18:52;10.00;99.90
4697;DHT22;2362;50.780;0.292;2023-04-06T07:21:18;10.00;99.90
4697;DHT22;2362;50.780;0.292;2023-04-06T07:23:43;10.00;99.90
4697;DHT22;2362;50.780;0.292;2023-04-06T07:26:09;10.00;99.90
4697;DHT22;2362;50.780;0.292;2023-04-06T07:28:35;10.10;99.90
4697;DHT22;2362;50.780;0.292;2023-04-06T07:31:01;10.10;99.90
4697;DHT22;2362;50.780;0.292;2023-04-06T07:33:26;10.20;99.90
4697;DHT22;2362;50.780;0.292;2023-04-06T07:35:55;10.10;99.90
4697;DHT22;2362;50.780;0.292;2023-04-06T07:38:22;10.20;99.90
4697;DHT22;2362;50.780;0.292;2023-04-06T07:40:47;10.20;99.90
4697;DHT22;2362;50.780;0.292;2023-04-06T07:43:13;10.20;99.90
4697;DHT22;2362;50.780;0.292;2023-04-06T07:45:38;10.20;99.90
4697;DHT22;2362;50.780;0.292;2023-04-06T07:48:04;10.20;99.90
4697;DHT22;2362;50.780;0.292;2023-04-06T07:50:30;10.30;99.90
4697;DHT22;2362;50.780;0.292;2023-04-06T07:52:56;10.30;99.90
4697;DHT22;2362;50.780;0.292;2023-04-06T07:55:21;10.30;99.90
4697;DHT22;2362;50.780;0.292;2023-04-06T07:57:47;10.30;99.90
4697;DHT22;2362;50.780;0.292;2023-04-06T08:00:13;10.40;99.90
4697;DHT22;2362;50.780;0.292;2023-04-06T08:02:39;10.40;99.90
4697;DHT22;2362;50.780;0.292;2023-04-06T08:05:05;10.30;99.90
4697;DHT22;2362;50.780;0.292;2023-04-06T08:07:31;10.30;99.90
4697;DHT22;2362;50.780;0.292;2023-04-06T08:09:57;10.20;99.90
4697;DHT22;2362;50.780;0.292;2023-04-06T08:12:22;10.20;99.90
4697;DHT22;2362;50.780;0.292;2023-04-06T08:14:48;10.20;99.90
4697;DHT22;2362;50.780;0.292;2023-04-06T08:17:14;10.20;99.90
4697;DHT22;2362;50.780;0.292;2023-04-06T08:19:42;10.20;99.90
4697;DHT22;2362;50.780;0.292;2023-04-06T08:22:09;10.10;99.90
4697;DHT22;2362;50.780;0.292;2023-04-06T08:24:35;10.10;99.90
4697;DHT22;2362;50.780;0.292;2023-04-06T08:27:01;10.10;99.90
4697;DHT22;2362;50.780;0.292;2023-04-06T08:29:26;10.00;99.90
4697;DHT22;2362;50.780;0.292;2023-04-06T08:31:52;9.90;99.90
4697;DHT22;2362;50.780;0.292;2023-04-06T08:34:18;10.00;99.90
4697;DHT22;2362;50.780;0.292;2023-04-06T08:36:43;10.00;99.90
4697;DHT22;2362;50.780;0.292;2023-04-06T08:39:10;10.10;99.90
4697;DHT22;2362;50.780;0.292;2023-04-06T08:41:36;10.30;99.90
4697;DHT22;2362;50.780;0.292;2023-04-06T08:44:03;10.50;99.90
4697;DHT22;2362;50.780;0.292;2023-04-06T08:46:30;10.60;99.90
4697;DHT22;2362;50.780;0.292;2023-04-06T08:48:57;10.70;99.90
4697;DHT22;2362;50.780;0.292;2023-04-06T08:51:24;10.90;99.90
4697;DHT22;2362;50.780;0.292;2023-04-06T08:53:53;11.10;99.90
4697;DHT22;2362;50.780;0.292;2023-04-06T08:56:22;11.10;99.90
4697;DHT22;2362;50.780;0.292;2023-04-06T08:58:50;11.30;99.90
4697;DHT22;2362;50.780;0.292;2023-04-06T09:01:18;11.30;99.90
4697;DHT22;2362;50.780;0.292;2023-04-06T09:03:46;11.30;99.90
4697;DHT22;2362;50.780;0.292;2023-04-06T09:06:13;11.20;99.90
4697;DHT22;2362;50.780;0.292;2023-04-06T09:08:39;11.20;99.90
4697;DHT22;2362;50.780;0.292;2023-04-06T09:11:06;11.10;99.90
4697;DHT22;2362;50.780;0.292;2023-04-06T09:13:43;11.30;99.90
4697;DHT22;2362;50.780;0.292;2023-04-06T09:16:09;11.30;99.90
4697;DHT22;2362;50.780;0.292;2023-04-06T09:18:35;11.40;99.90
4697;DHT22;2362;50.780;0.292;2023-04-06T09:21:02;11.40;99.90
4697;DHT22;2362;50.780;0.292;2023-04-06T09:23:28;11.40;99.90
4697;DHT22;2362;50.780;0.292;2023-04-06T09:26:13;11.40;99.90
4697;DHT22;2362;50.780;0.292;2023-04-06T09:31:08;11.40;99.90
4697;DHT22;2362;50.780;0.292;2023-04-06T09:33:38;11.50;99.90
4697;DHT22;2362;50.780;0.292;2023-04-06T09:36:05;11.40;99.90
4697;DHT22;2362;50.780;0.292;2023-04-06T09:38:31;11.60;99.90
4697;DHT22;2362;50.780;0.292;2023-04-06T09:40:57;11.70;99.90
4697;DHT22;2362;50.780;0.292;2023-04-06T09:43:29;11.60;99.90
4697;DHT22;2362;50.780;0.292;2023-04-06T09:45:56;11.70;99.90
4697;DHT22;2362;50.780;0.292;2023-04-06T09:48:22;11.90;99.90
4697;DHT22;2362;50.780;0.292;2023-04-06T09:50:50;12.10;99.90
4697;DHT22;2362;50.780;0.292;2023-04-06T09:53:20;12.00;99.90
4697;DHT22;2362;50.780;0.292;2023-04-06T09:55:50;11.90;99.90
4697;DHT22;2362;50.780;0.292;2023-04-06T09:58:17;11.90;99.90
4697;DHT22;2362;50.780;0.292;2023-04-06T10:01:09;12.10;99.90
4697;DHT22;2362;50.780;0.292;2023-04-06T10:06:33;12.10;99.90
4697;DHT22;2362;50.780;0.292;2023-04-06T10:09:02;12.30;99.90
4697;DHT22;2362;50.780;0.292;2023-04-06T10:11:30;12.40;99.90
4697;DHT22;2362;50.780;0.292;2023-04-06T10:13:56;12.40;99.90
4697;DHT22;2362;50.780;0.292;2023-04-06T10:16:22;12.40;99.90
4697;DHT22;2362;50.780;0.292;2023-04-06T10:18:55;12.50;99.90
4697;DHT22;2362;50.780;0.292;2023-04-06T10:21:24;12.50;99.90
4697;DHT22;2362;50.780;0.292;2023-04-06T10:23:59;12.50;99.90
4697;DHT22;2362;50.780;0.292;2023-04-06T10:26:25;12.50;99.90
4697;DHT22;2362;50.780;0.292;2023-04-06T10:28:51;12.30;99.90
4697;DHT22;2362;50.780;0.292;2023-04-06T10:31:27;12.30;99.90
4697;DHT22;2362;50.780;0.292;2023-04-06T10:34:02;12.50;99.90
4697;DHT22;2362;50.780;0.292;2023-04-06T10:36:32;12.60;99.90
4697;DHT22;2362;50.780;0.292;2023-04-06T10:38:59;12.60;99.90
4697;DHT22;2362;50.780;0.292;2023-04-06T10:41:42;12.20;99.90
4697;DHT22;2362;50.780;0.292;2023-04-06T10:44:16;12.20;99.90
4697;DHT22;2362;50.780;0.292;2023-04-06T10:46:55;12.40;99.90
4697;DHT22;2362;50.780;0.292;2023-04-06T10:49:21;12.40;99.90
4697;DHT22;2362;50.780;0.292;2023-04-06T10:51:53;12.20;99.90
4697;DHT22;2362;50.780;0.292;2023-04-06T10:54:21;12.20;99.90
4697;DHT22;2362;50.780;0.292;2023-04-06T10:56:48;12.10;99.90
4697;DHT22;2362;50.780;0.292;2023-04-06T10:59:19;12.20;99.90
4697;DHT22;2362;50.780;0.292;2023-04-06T11:01:44;12.10;99.90
4697;DHT22;2362;50.780;0.292;2023-04-06T11:04:16;12.10;99.90
4697;DHT22;2362;50.780;0.292;2023-04-06T11:06:46;12.10;99.90
4697;DHT22;2362;50.780;0.292;2023-04-06T11:09:26;12.00;99.90
4697;DHT22;2362;50.780;0.292;2023-04-06T11:11:52;12.10;99.90
4697;DHT22;2362;50.780;0.292;2023-04-06T11:14:18;12.30;99.90
4697;DHT22;2362;50.780;0.292;2023-04-06T11:16:46;12.50;99.90
4697;DHT22;2362;50.780;0.292;2023-04-06T11:19:13;12.60;99.90
4697;DHT22;2362;50.780;0.292;2023-04-06T11:21:44;12.90;99.90
4697;DHT22;2362;50.780;0.292;2023-04-06T11:24:14;13.00;99.90
4697;DHT22;2362;50.780;0.292;2023-04-06T11:26:45;13.30;99.90
4697;DHT22;2362;50.780;0.292;2023-04-06T11:29:19;13.10;99.90
4697;DHT22;2362;50.780;0.292;2023-04-06T11:31:53;13.00;99.90
4697;DHT22;2362;50.780;0.292;2023-04-06T11:34:23;12.90;99.90
4697;DHT22;2362;50.780;0.292;2023-04-06T11:36:55;12.80;99.90
4697;DHT22;2362;50.780;0.292;2023-04-06T11:39:23;12.60;99.90
4697;DHT22;2362;50.780;0.292;2023-04-06T11:41:59;12.70;99.90
4697;DHT22;2362;50.780;0.292;2023-04-06T11:44:32;12.70;99.90
4697;DHT22;2362;50.780;0.292;2023-04-06T11:47:00;12.70;99.90
4697;DHT22;2362;50.780;0.292;2023-04-06T11:49:30;12.80;99.90
4697;DHT22;2362;50.780;0.292;2023-04-06T11:51:57;13.00;99.90
4697;DHT22;2362;50.780;0.292;2023-04-06T11:54:38;13.00;99.90
4697;DHT22;2362;50.780;0.292;2023-04-06T11:57:04;12.90;99.90
4697;DHT22;2362;50.780;0.292;2023-04-06T11:59:31;13.00;99.90
4697;DHT22;2362;50.780;0.292;2023-04-06T12:02:01;13.00;99.90
4697;DHT22;2362;50.780;0.292;2023-04-06T12:04:27;13.00;99.90
4697;DHT22;2362;50.780;0.292;2023-04-06T12:06:53;12.90;99.90
4697;DHT22;2362;50.780;0.292;2023-04-06T12:09:19;12.80;99.90
4697;DHT22;2362;50.780;0.292;2023-04-06T12:11:45;12.80;99.90
4697;DHT22;2362;50.780;0.292;2023-04-06T12:14:11;13.00;99.90
4697;DHT22;2362;50.780;0.292;2023-04-06T12:16:37;13.20;99.90
4697;DHT22;2362;50.780;0.292;2023-04-06T12:19:03;13.20;99.90
4697;DHT22;2362;50.780;0.292;2023-04-06T12:21:34;13.10;99.90
4697;DHT22;2362;50.780;0.292;2023-04-06T12:24:00;13.20;99.90
4697;DHT22;2362;50.780;0.292;2023-04-06T12:26:27;13.30;99.90
4697;DHT22;2362;50.780;0.292;2023-04-06T12:28:52;13.40;99.90
4697;DHT22;2362;50.780;0.292;2023-04-06T12:31:20;13.60;99.90
4697;DHT22;2362;50.780;0.292;2023-04-06T12:33:47;13.70;99.90
4697;DHT22;2362;50.780;0.292;2023-04-06T12:36:14;13.70;99.90
4697;DHT22;2362;50.780;0.292;2023-04-06T12:38:41;13.70;99.90
4697;DHT22;2362;50.780;0.292;2023-04-06T12:41:07;13.60;99.90
4697;DHT22;2362;50.780;0.292;2023-04-06T12:43:33;13.50;99.90
4697;DHT22;2362;50.780;0.292;2023-04-06T12:45:59;13.50;99.90
4697;DHT22;2362;50.780;0.292;2023-04-06T12:48:25;13.60;99.90
4697;DHT22;2362;50.780;0.292;2023-04-06T12:51:00;14.00;99.90
4697;DHT22;2362;50.780;0.292;2023-04-06T12:53:26;14.30;99.90
4697;DHT22;2362;50.780;0.292;2023-04-06T12:55:56;14.50;99.90
4697;DHT22;2362;50.780;0.292;2023-04-06T12:58:23;14.80;99.90
4697;DHT22;2362;50.780;0.292;2023-04-06T13:00:49;14.50;99.90
4697;DHT22;2362;50.780;0.292;2023-04-06T13:03:16;14.50;99.90
4697;DHT22;2362;50.780;0.292;2023-04-06T13:06:01;14.50;99.90
4697;DHT22;2362;50.780;0.292;2023-04-06T13:08:26;14.50;99.90
4697;DHT22;2362;50.780;0.292;2023-04-06T13:10:55;14.50;99.90
4697;DHT22;2362;50.780;0.292;2023-04-06T13:13:28;14.30;99.90
4697;DHT22;2362;50.780;0.292;2023-04-06T13:15:55;14.30;99.90
4697;DHT22;2362;50.780;0.292;2023-04-06T13:18:21;14.20;99.90
4697;DHT22;2362;50.780;0.292;2023-04-06T13:20:48;14.00;99.90
4697;DHT22;2362;50.780;0.292;2023-04-06T13:23:39;14.00;99.90
4697;DHT22;2362;50.780;0.292;2023-04-06T13:26:08;13.90;99.90
4697;DHT22;2362;50.780;0.292;2023-04-06T13:28:35;13.90;99.90
4697;DHT22;2362;50.780;0.292;2023-04-06T13:31:02;13.80;99.90
4697;DHT22;2362;50.780;0.292;2023-04-06T13:33:28;13.60;99.90
4697;DHT22;2362;50.780;0.292;2023-04-06T13:35:55;13.50;99.90
4697;DHT22;2362;50.780;0.292;2023-04-06T13:38:21;13.40;99.90
4697;DHT22;2362;50.780;0.292;2023-04-06T13:40:46;13.40;99.90
4697;DHT22;2362;50.780;0.292;2023-04-06T13:43:12;13.50;99.90
4697;DHT22;2362;50.780;0.292;2023-04-06T13:45:38;13.80;99.90
4697;DHT22;2362;50.780;0.292;2023-04-06T13:48:04;13.90;99.90
4697;DHT22;2362;50.780;0.292;2023-04-06T13:50:30;13.90;99.90
4697;DHT22;2362;50.780;0.292;2023-04-06T13:52:56;14.00;99.90
4697;DHT22;2362;50.780;0.292;2023-04-06T13:55:22;14.00;99.90
4697;DHT22;2362;50.780;0.292;2023-04-06T13:57:50;13.90;99.90
4697;DHT22;2362;50.780;0.292;2023-04-06T14:00:16;13.80;99.90
4697;DHT22;2362;50.780;0.292;2023-04-06T14:02:42;13.70;99.90
4697;DHT22;2362;50.780;0.292;2023-04-06T14:05:08;13.70;99.90
4697;DHT22;2362;50.780;0.292;2023-04-06T14:07:34;13.70;99.90
4697;DHT22;2362;50.780;0.292;2023-04-06T14:09:59;13.70;99.90
4697;DHT22;2362;50.780;0.292;2023-04-06T14:12:25;13.70;99.90
4697;DHT22;2362;50.780;0.292;2023-04-06T14:14:52;13.80;99.90
4697;DHT22;2362;50.780;0.292;2023-04-06T14:17:18;14.00;99.90
4697;DHT22;2362;50.780;0.292;2023-04-06T14:19:43;14.10;99.90
4697;DHT22;2362;50.780;0.292;2023-04-06T14:22:09;14.00;99.90
4697;DHT22;2362;50.780;0.292;2023-04-06T14:24:36;14.30;99.90
4697;DHT22;2362;50.780;0.292;2023-04-06T14:27:02;14.20;99.90
4697;DHT22;2362;50.780;0.292;2023-04-06T14:29:28;14.10;99.90
4697;DHT22;2362;50.780;0.292;2023-04-06T14:31:54;13.80;99.90
4697;DHT22;2362;50.780;0.292;2023-04-06T14:34:28;13.50;99.90
4697;DHT22;2362;50.780;0.292;2023-04-06T14:36:53;13.50;99.90
4697;DHT22;2362;50.780;0.292;2023-04-06T14:39:19;13.50;99.90
4697;DHT22;2362;50.780;0.292;2023-04-06T14:41:45;13.70;99.90
4697;DHT22;2362;50.780;0.292;2023-04-06T14:44:14;13.50;99.90
4697;DHT22;2362;50.780;0.292;2023-04-06T14:46:39;13.20;99.90
4697;DHT22;2362;50.780;0.292;2023-04-06T14:49:05;12.90;99.90
4697;DHT22;2362;50.780;0.292;2023-04-06T14:51:33;13.10;99.90
4697;DHT22;2362;50.780;0.292;2023-04-06T14:54:01;13.10;99.90
4697;DHT22;2362;50.780;0.292;2023-04-06T14:56:28;13.20;99.90
4697;DHT22;2362;50.780;0.292;2023-04-06T14:58:57;13.20;99.90
4697;DHT22;2362;50.780;0.292;2023-04-06T15:01:24;13.20;99.90
4697;DHT22;2362;50.780;0.292;2023-04-06T15:03:50;13.30;99.90
4697;DHT22;2362;50.780;0.292;2023-04-06T15:06:17;13.30;99.90
4697;DHT22;2362;50.780;0.292;2023-04-06T15:08:45;13.10;99.90
4697;DHT22;2362;50.780;0.292;2023-04-06T15:11:11;12.90;99.90
4697;DHT22;2362;50.780;0.292;2023-04-06T15:13:38;12.90;99.90
4697;DHT22;2362;50.780;0.292;2023-04-06T15:16:05;12.80;99.90
4697;DHT22;2362;50.780;0.292;2023-04-06T15:18:32;12.80;99.90
4697;DHT22;2362;50.780;0.292;2023-04-06T15:20:57;12.50;99.90
4697;DHT22;2362;50.780;0.292;2023-04-06T15:23:23;12.50;99.90
4697;DHT22;2362;50.780;0.292;2023-04-06T15:25:49;12.40;99.90
4697;DHT22;2362;50.780;0.292;2023-04-06T15:28:15;12.30;99.90
4697;DHT22;2362;50.780;0.292;2023-04-06T15:30:41;11.90;99.90
4697;DHT22;2362;50.780;0.292;2023-04-06T15:33:07;11.60;99.90
4697;DHT22;2362;50.780;0.292;2023-04-06T15:35:33;11.30;99.90
4697;DHT22;2362;50.780;0.292;2023-04-06T15:38:04;11.20;99.90
4697;DHT22;2362;50.780;0.292;2023-04-06T15:40:30;11.20;99.90
4697;DHT22;2362;50.780;0.292;2023-04-06T15:42:55;11.20;99.90
4697;DHT22;2362;50.780;0.292;2023-04-06T15:45:21;11.30;99.90
4697;DHT22;2362;50.780;0.292;2023-04-06T15:47:46;11.40;99.90
4697;DHT22;2362;50.780;0.292;2023-04-06T15:50:13;11.50;99.90
4697;DHT22;2362;50.780;0.292;2023-04-06T15:52:39;11.60;99.90
4697;DHT22;2362;50.780;0.292;2023-04-06T15:55:06;11.80;99.90
4697;DHT22;2362;50.780;0.292;2023-04-06T15:57:32;11.90;99.90
4697;DHT22;2362;50.780;0.292;2023-04-06T15:59:58;12.00;99.90
4697;DHT22;2362;50.780;0.292;2023-04-06T16:02:24;12.20;99.90
4697;DHT22;2362;50.780;0.292;2023-04-06T16:04:55;12.30;99.90
4697;DHT22;2362;50.780;0.292;2023-04-06T16:07:21;12.40;99.90
4697;DHT22;2362;50.780;0.292;2023-04-06T16:09:47;12.50;99.90
4697;DHT22;2362;50.780;0.292;2023-04-06T16:12:12;12.50;99.90
4697;DHT22;2362;50.780;0.292;2023-04-06T16:14:38;12.50;99.90
4697;DHT22;2362;50.780;0.292;2023-04-06T16:17:04;12.40;99.90